Time;durP1;ratioP1;P1;durP2;ratioP2;P2;SDS_P1;SDS_P2;PMS_P1;PMS_P2;Temp;Humidity;BMP_temperature;BMP_pressure;BME280_temperature;BME280_humidity;BME280_pressure;Samples;Min_cycle;Max_cycle;Signal;HPM_P1;HPM_P2
2021/08/18 00:02:22;;;;;;;;;1.75;1.75;;;;;25.65;42.54;101642.97;5120152;27;51882;-46
2021/08/18 00:04:47;;;;;;;;;4.00;2.25;;;;;25.63;42.62;101643.19;5107597;27;51250;-47
2021/08/18 00:07:12;;;;;;;;;1.50;1.50;;;;;25.63;42.94;101646.81;5099987;27;50891;-50
2021/08/18 00:09:38;;;;;;;;;2.75;1.50;;;;;25.63;42.54;101644.03;5099719;27;51224;-46
2021/08/18 00:12:04;;;;;;;;;2.00;2.00;;;;;25.63;42.85;101640.41;5098867;27;51658;-45
2021/08/18 00:14:29;;;;;;;;;1.75;1.75;;;;;25.63;42.56;101638.47;5099745;27;51110;-47
2021/08/18 00:16:54;;;;;;;;;2.00;2.00;;;;;25.63;42.83;101640.41;5099825;27;51121;-47
2021/08/18 00:19:20;;;;;;;;;2.00;2.00;;;;;25.63;42.33;101632.94;5099916;27;51060;-50
2021/08/18 00:21:45;;;;;;;;;2.00;2.00;;;;;25.63;42.61;101632.94;5081329;27;51891;-50
2021/08/18 00:24:11;;;;;;;;;2.00;2.00;;;;;25.63;42.64;101640.41;5099519;27;50995;-47
2021/08/18 00:26:36;;;;;;;;;3.00;1.75;;;;;25.63;42.23;101626.53;5106297;27;51052;-48
2021/08/18 00:29:03;;;;;;;;;2.00;1.25;;;;;25.62;42.75;101624.84;5120092;27;51328;-49
2021/08/18 00:31:29;;;;;;;;;2.00;2.00;;;;;25.63;42.79;101632.09;5119661;27;52647;-46
2021/08/18 00:33:54;;;;;;;;;3.50;2.75;;;;;25.62;42.65;101624.84;5120114;27;51572;-44
2021/08/18 00:36:19;;;;;;;;;2.00;2.00;;;;;25.62;42.60;101627.63;5102017;27;51090;-42
2021/08/18 00:38:45;;;;;;;;;1.25;1.25;;;;;25.61;42.51;101626.78;5120137;27;51109;-49
2021/08/18 00:41:11;;;;;;;;;3.00;3.00;;;;;25.62;42.84;101630.41;5119395;27;50953;-49
2021/08/18 00:43:36;;;;;;;;;1.00;1.00;;;;;25.61;42.46;101631.50;5119896;27;51036;-46
2021/08/18 00:46:02;;;;;;;;;1.25;1.00;;;;;25.61;42.80;101626.78;5119786;27;51067;-48
2021/08/18 00:48:29;;;;;;;;;3.50;2.50;;;;;25.62;42.58;101624.84;5119749;27;50954;-48
2021/08/18 00:50:54;;;;;;;;;1.25;1.25;;;;;25.61;42.55;101628.72;5119345;27;50988;-48
2021/08/18 00:53:20;;;;;;;;;1.00;1.00;;;;;25.61;42.83;101623.16;5119558;27;51060;-48
2021/08/18 00:55:45;;;;;;;;;2.25;2.00;;;;;25.60;42.80;101625.09;5119472;27;50964;-49
2021/08/18 00:58:10;;;;;;;;;0.75;0.75;;;;;25.60;42.56;101621.47;5119829;27;51214;-50
2021/08/18 01:00:36;;;;;;;;;1.75;1.75;;;;;25.60;42.53;101619.53;5101069;27;53628;-48
2021/08/18 01:03:02;;;;;;;;;2.00;2.00;;;;;25.60;42.73;101618.72;5119477;27;51316;-48
2021/08/18 01:05:30;;;;;;;;;0.00;0.00;;;;;25.60;42.63;101624.25;5101197;27;51120;-49
2021/08/18 01:07:58;;;;;;;;;2.00;2.00;;;;;25.59;42.93;101623.41;5099211;27;51161;-49
2021/08/18 01:10:30;;;;;;;;;3.00;2.00;;;;;25.60;42.90;101627.88;5098294;27;51951;-50
2021/08/18 01:12:56;;;;;;;;;3.00;2.00;;;;;25.59;42.61;101628.97;5098713;27;51134;-49
2021/08/18 01:15:25;;;;;;;;;2.25;2.25;;;;;25.60;42.70;101624.25;5098799;27;51052;-46
2021/08/18 01:17:54;;;;;;;;;2.00;2.00;;;;;25.59;42.58;101617.84;5098303;27;51318;-48
2021/08/18 01:20:22;;;;;;;;;2.00;2.00;;;;;25.59;42.68;101620.63;5098460;27;51998;-46
2021/08/18 01:22:49;;;;;;;;;1.50;1.50;;;;;25.59;42.52;101625.34;5098630;27;50871;-49
2021/08/18 01:25:15;;;;;;;;;1.00;1.00;;;;;25.59;42.80;101623.41;5097274;27;51137;-49
2021/08/18 01:27:53;;;;;;;;;1.25;1.25;;;;;25.59;42.61;101617.00;5114375;27;51338;-49
2021/08/18 01:30:20;;;;;;;;;2.00;1.75;;;;;25.58;42.49;101613.41;5100838;27;51757;-50
2021/08/18 01:32:53;;;;;;;;;3.00;1.75;;;;;25.58;42.40;101613.41;5118939;27;50918;-49
2021/08/18 01:35:24;;;;;;;;;2.00;1.00;;;;;25.58;42.68;101607.00;5119295;27;51049;-48
2021/08/18 01:37:50;;;;;;;;;1.00;1.00;;;;;25.58;42.62;101615.34;5119283;27;50884;-48
2021/08/18 01:40:16;;;;;;;;;1.00;1.00;;;;;25.58;43.09;101604.22;5118783;27;52631;-48
2021/08/18 01:42:42;;;;;;;;;2.00;1.75;;;;;25.59;42.46;101614.25;5100723;27;50909;-46
2021/08/18 01:45:08;;;;;;;;;0.50;0.50;;;;;25.58;42.74;101598.69;5118986;27;51156;-49
2021/08/18 01:47:34;;;;;;;;;3.00;1.25;;;;;25.58;42.71;101601.47;5119345;27;51141;-50
2021/08/18 01:49:59;;;;;;;;;2.00;1.25;;;;;25.57;42.72;101608.09;5118912;27;51718;-48
2021/08/18 01:52:24;;;;;;;;;2.25;1.25;;;;;25.57;42.50;101608.09;5118964;27;51016;-47
2021/08/18 01:54:50;;;;;;;;;0.75;0.75;;;;;25.58;42.75;101609.78;5118843;27;51252;-50
2021/08/18 01:57:16;;;;;;;;;1.50;1.00;;;;;25.56;42.77;101601.69;5119128;27;50986;-48
2021/08/18 01:59:41;;;;;;;;;0.50;0.50;;;;;25.57;42.74;101602.53;5118428;27;51739;-46
2021/08/18 02:02:07;;;;;;;;;0.00;0.00;;;;;25.56;42.98;101593.38;5118272;27;51069;-48
2021/08/18 02:04:32;;;;;;;;;2.25;1.25;;;;;25.55;42.60;101600.00;5108026;27;50964;-48
2021/08/18 02:06:57;;;;;;;;;2.75;1.50;;;;;25.56;42.84;101595.31;5098049;27;51383;-49
2021/08/18 02:09:22;;;;;;;;;2.00;2.00;;;;;25.55;42.64;101600.00;5097550;27;51827;-48
2021/08/18 02:11:48;;;;;;;;;1.00;1.00;;;;;25.56;42.77;101595.31;5097716;27;51062;-50
2021/08/18 02:14:13;;;;;;;;;3.25;1.00;;;;;25.55;42.75;101597.25;5079873;27;51020;-52
2021/08/18 02:16:38;;;;;;;;;1.50;1.50;;;;;25.56;42.51;101596.16;5098066;27;51235;-47
2021/08/18 02:19:04;;;;;;;;;0.25;0.25;;;;;25.55;42.61;101596.41;5097340;27;51087;-48
2021/08/18 02:21:29;;;;;;;;;1.00;1.00;;;;;25.55;42.78;101596.41;5097891;27;51037;-46
2021/08/18 02:23:54;;;;;;;;;1.25;1.00;;;;;25.54;42.69;101591.94;5097756;27;51018;-47
2021/08/18 02:26:20;;;;;;;;;1.25;1.00;;;;;25.54;42.77;101589.16;5083930;27;51139;-50
2021/08/18 02:28:45;;;;;;;;;1.00;1.00;;;;;25.55;42.75;101593.63;5117841;27;51731;-48
2021/08/18 02:31:11;;;;;;;;;1.00;1.00;;;;;25.54;42.78;101586.38;5118268;27;51016;-46
2021/08/18 02:33:36;;;;;;;;;2.00;2.00;;;;;25.54;42.76;101580.84;5118229;27;51013;-47
2021/08/18 02:36:03;;;;;;;;;2.00;1.25;;;;;25.54;42.71;101580.84;5120647;27;51106;-47
2021/08/18 02:38:28;;;;;;;;;2.00;2.00;;;;;25.54;42.76;101587.22;5121615;27;52562;-48
2021/08/18 02:40:54;;;;;;;;;1.50;1.50;;;;;25.54;42.87;101580.84;5121677;27;50938;-49
2021/08/18 02:43:19;;;;;;;;;0.25;0.25;;;;;25.54;42.72;101580.84;5121826;27;51062;-45
2021/08/18 02:45:45;;;;;;;;;1.00;1.00;;;;;25.54;42.94;101578.91;5122085;27;50900;-47
2021/08/18 02:48:10;;;;;;;;;1.25;1.25;;;;;25.53;42.63;101584.66;5121453;27;51781;-50
2021/08/18 02:50:36;;;;;;;;;1.50;1.00;;;;;25.53;42.72;101577.22;5121788;27;51047;-46
2021/08/18 02:53:02;;;;;;;;;1.00;1.00;;;;;25.54;42.68;101575.28;5121713;27;51019;-49
2021/08/18 02:55:28;;;;;;;;;0.00;0.00;;;;;25.53;42.70;101579.13;5121744;27;50959;-46
2021/08/18 02:57:54;;;;;;;;;2.00;2.00;;;;;25.52;42.77;101569.94;5121617;27;50965;-49
2021/08/18 03:00:21;;;;;;;;;0.50;0.50;;;;;25.53;42.72;101576.34;5121495;27;51500;-45
2021/08/18 03:02:46;;;;;;;;;1.00;1.00;;;;;25.52;42.91;101582.97;5121272;27;51202;-46
2021/08/18 03:05:13;;;;;;;;;0.75;0.75;;;;;25.52;42.73;101578.28;5105449;27;50922;-46
2021/08/18 03:07:38;;;;;;;;;1.00;1.00;;;;;25.52;43.08;101577.44;5100933;27;51001;-46
2021/08/18 03:10:04;;;;;;;;;1.00;1.00;;;;;25.51;42.65;101582.13;5082572;27;51022;-48
2021/08/18 03:12:29;;;;;;;;;0.25;0.25;;;;;25.52;43.07;101577.44;5100880;27;50966;-49
2021/08/18 03:14:55;;;;;;;;;0.25;0.25;;;;;25.53;42.56;101576.34;5101186;27;51246;-49
2021/08/18 03:17:20;;;;;;;;;0.75;0.75;;;;;25.52;42.73;101574.66;5100384;27;50936;-48
2021/08/18 03:19:45;;;;;;;;;2.50;0.00;;;;;25.51;42.72;101587.69;5100553;27;51025;-49
2021/08/18 03:22:11;;;;;;;;;2.00;2.00;;;;;25.51;42.66;101584.91;5100706;27;51022;-49
2021/08/18 03:24:36;;;;;;;;;0.50;0.50;;;;;25.51;42.78;101584.06;5100609;27;51118;-48
2021/08/18 03:27:02;;;;;;;;;1.00;1.00;;;;;25.50;42.65;101572.13;5110793;27;52802;-51
2021/08/18 03:29:27;;;;;;;;;1.00;1.00;;;;;25.50;42.65;101577.66;5120995;27;50987;-49
2021/08/18 03:31:53;;;;;;;;;1.00;1.00;;;;;25.50;42.77;101574.06;5121421;27;51085;-48
2021/08/18 03:34:18;;;;;;;;;1.50;0.75;;;;;25.50;42.72;101574.06;5121430;27;51161;-47
2021/08/18 03:36:44;;;;;;;;;2.00;2.00;;;;;25.50;42.77;101574.91;5121144;27;51080;-46
2021/08/18 03:39:09;;;;;;;;;2.00;1.00;;;;;25.51;42.89;101570.19;5102793;27;51026;-46
2021/08/18 03:41:34;;;;;;;;;1.00;1.00;;;;;25.50;42.77;101574.91;5120690;27;51096;-47
2021/08/18 03:43:59;;;;;;;;;0.75;0.75;;;;;25.50;42.63;101577.66;5121158;27;51021;-46
2021/08/18 03:46:25;;;;;;;;;0.00;0.00;;;;;25.50;42.79;101574.06;5119897;27;50876;-47
2021/08/18 03:48:50;;;;;;;;;0.75;0.75;;;;;25.49;42.52;101573.22;5120439;27;50913;-49
2021/08/18 03:51:15;;;;;;;;;1.00;1.00;;;;;25.49;42.94;101567.66;5120943;27;51047;-48
2021/08/18 03:53:41;;;;;;;;;0.75;0.75;;;;;25.51;42.85;101570.19;5120778;27;50886;-48
2021/08/18 03:56:06;;;;;;;;;1.00;1.00;;;;;25.49;42.94;101564.91;5084957;27;52899;-47
2021/08/18 03:58:32;;;;;;;;;0.75;0.75;;;;;25.49;42.66;101572.38;5120603;27;50894;-48
2021/08/18 04:00:57;;;;;;;;;1.25;1.00;;;;;25.49;42.82;101572.38;5120737;27;51126;-48
2021/08/18 04:03:22;;;;;;;;;1.00;1.00;;;;;25.48;42.83;101565.97;5120346;27;51440;-47
2021/08/18 04:05:48;;;;;;;;;1.00;1.00;;;;;25.48;42.92;101568.75;5081347;27;52766;-51
2021/08/18 04:08:13;;;;;;;;;0.50;0.50;;;;;25.48;42.71;101567.91;5100103;27;51135;-46
2021/08/18 04:10:40;;;;;;;;;1.00;1.00;;;;;25.47;42.88;101564.28;5100216;27;51099;-49
2021/08/18 04:13:06;;;;;;;;;1.00;1.00;;;;;25.48;42.59;101562.38;5100836;27;50941;-47
2021/08/18 04:15:39;;;;;;;;;1.50;1.50;;;;;25.47;42.63;101569.84;5100275;27;51010;-49
2021/08/18 04:18:05;;;;;;;;;1.00;1.00;;;;;25.47;42.83;101571.78;5099968;27;51194;-49
2021/08/18 04:20:31;;;;;;;;;0.75;0.75;;;;;25.46;42.71;101573.69;5100109;27;50963;-47
2021/08/18 04:22:57;;;;;;;;;2.00;2.00;;;;;25.47;42.78;101574.53;5100286;27;51043;-48
2021/08/18 04:25:23;;;;;;;;;1.00;1.00;;;;;25.47;42.87;101571.78;5099320;27;51897;-49
2021/08/18 04:27:49;;;;;;;;;2.00;2.00;;;;;25.47;42.78;101571.78;5098274;27;51041;-49
2021/08/18 04:30:16;;;;;;;;;1.00;1.00;;;;;25.47;42.90;101569.00;5120298;27;51120;-51
2021/08/18 04:32:42;;;;;;;;;0.00;0.00;;;;;25.47;42.53;101574.53;5120277;27;51283;-50
2021/08/18 04:35:09;;;;;;;;;1.00;1.00;;;;;25.46;42.80;101579.25;5101763;27;54017;-51
2021/08/18 04:37:37;;;;;;;;;1.00;1.00;;;;;25.46;42.97;101576.47;5120007;27;51156;-48
2021/08/18 04:40:08;;;;;;;;;0.75;0.75;;;;;25.45;42.81;101572.00;5119839;27;51161;-51
2021/08/18 04:42:35;;;;;;;;;1.00;1.00;;;;;25.46;42.97;101570.94;5120374;27;51059;-49
2021/08/18 04:45:02;;;;;;;;;2.00;2.00;;;;;25.45;42.89;101566.47;5101498;27;52847;-46
2021/08/18 04:47:28;;;;;;;;;1.00;1.00;;;;;25.46;42.89;101578.41;5120088;27;51119;-50
2021/08/18 04:49:53;;;;;;;;;0.00;0.00;;;;;25.45;42.79;101576.72;5119788;27;51038;-48
2021/08/18 04:52:18;;;;;;;;;1.75;1.75;;;;;25.45;42.73;101576.72;5101808;27;51101;-48
2021/08/18 04:54:44;;;;;;;;;1.00;1.00;;;;;25.45;42.80;101574.78;5119495;27;51718;-44
2021/08/18 04:57:09;;;;;;;;;1.25;0.75;;;;;25.45;43.19;101579.50;5119806;27;51032;-48
2021/08/18 04:59:34;;;;;;;;;2.00;1.00;;;;;25.45;43.03;101571.16;5119749;27;51105;-42
2021/08/18 05:02:00;;;;;;;;;1.75;1.25;;;;;25.45;42.68;101573.94;5119567;27;50906;-44
2021/08/18 05:04:25;;;;;;;;;1.00;1.00;;;;;25.45;42.72;101572.00;5109690;27;51062;-43
2021/08/18 05:06:50;;;;;;;;;1.00;1.00;;;;;25.44;42.76;101570.31;5099097;27;51122;-47
2021/08/18 05:09:16;;;;;;;;;1.00;1.00;;;;;25.44;42.76;101570.31;5098813;27;51122;-41
2021/08/18 05:11:41;;;;;;;;;1.00;1.00;;;;;25.44;42.88;101570.31;5099091;27;50881;-43
2021/08/18 05:14:06;;;;;;;;;1.00;1.00;;;;;25.44;42.93;101569.47;5098497;27;51933;-42
2021/08/18 05:16:32;;;;;;;;;1.00;1.00;;;;;25.44;42.91;101575.03;5098987;27;51010;-44
2021/08/18 05:18:57;;;;;;;;;1.00;1.00;;;;;25.44;42.87;101575.88;5098497;27;50932;-42
2021/08/18 05:21:22;;;;;;;;;1.00;1.00;;;;;25.44;42.82;101575.03;5098882;27;50867;-44
2021/08/18 05:23:48;;;;;;;;;1.50;1.00;;;;;25.44;42.76;101566.72;5098682;27;51728;-46
2021/08/18 05:26:13;;;;;;;;;5.00;2.00;;;;;25.44;42.76;101569.47;5083758;27;51023;-43
2021/08/18 05:28:38;;;;;;;;;1.00;1.00;;;;;25.43;43.07;101576.97;5119203;27;50911;-42
2021/08/18 05:31:04;;;;;;;;;3.75;2.00;;;;;25.43;42.91;101576.09;5119176;27;51087;-46
2021/08/18 05:33:29;;;;;;;;;1.50;1.50;;;;;25.43;42.89;101576.09;5100567;27;52731;-43
2021/08/18 05:35:55;;;;;;;;;1.00;1.00;;;;;25.42;43.07;101579.94;5119163;27;51075;-43
2021/08/18 05:38:21;;;;;;;;;1.25;1.25;;;;;25.42;42.68;101578.00;5118746;27;51079;-43
2021/08/18 05:40:46;;;;;;;;;0.50;0.50;;;;;25.41;42.70;101587.41;5119155;27;50863;-43
2021/08/18 05:43:13;;;;;;;;;1.25;1.25;;;;;25.42;42.85;101591.03;5118831;27;50956;-43
2021/08/18 05:45:39;;;;;;;;;2.25;1.50;;;;;25.42;42.91;101585.50;5118739;27;50829;-44
2021/08/18 05:48:04;;;;;;;;;2.00;2.00;;;;;25.42;42.94;101585.50;5118571;27;50887;-44
2021/08/18 05:50:29;;;;;;;;;1.25;1.25;;;;;25.42;43.14;101585.50;5118941;27;50946;-46
2021/08/18 05:52:55;;;;;;;;;1.25;1.25;;;;;25.42;42.62;101591.88;5100677;27;52839;-43
2021/08/18 05:55:20;;;;;;;;;1.00;1.00;;;;;25.41;43.04;101590.19;5118433;27;50902;-46
2021/08/18 05:57:45;;;;;;;;;1.00;0.75;;;;;25.42;42.74;101591.88;5118710;27;50908;-46
2021/08/18 06:00:11;;;;;;;;;1.50;1.50;;;;;25.41;42.89;101594.91;5118872;27;50856;-45
2021/08/18 06:02:37;;;;;;;;;1.50;1.50;;;;;25.42;42.69;101593.81;5099854;27;53761;-43
2021/08/18 06:05:03;;;;;;;;;1.00;1.00;;;;;25.41;43.21;101594.91;5103909;27;50937;-44
2021/08/18 06:07:28;;;;;;;;;1.00;1.00;;;;;25.41;42.72;101592.97;5098503;27;51036;-42
2021/08/18 06:09:54;;;;;;;;;1.00;1.00;;;;;25.41;43.05;101595.75;5079661;27;50917;-45
2021/08/18 06:12:19;;;;;;;;;3.50;2.00;;;;;25.41;43.14;101595.75;5098255;27;50997;-45
2021/08/18 06:14:44;;;;;;;;;2.75;2.00;;;;;25.41;43.06;101598.50;5097940;27;50974;-46
2021/08/18 06:17:10;;;;;;;;;1.00;1.00;;;;;25.41;43.26;101598.50;5079978;27;51006;-43
2021/08/18 06:19:35;;;;;;;;;2.00;2.00;;;;;25.42;42.61;101602.13;5098011;27;51015;-44
2021/08/18 06:22:01;;;;;;;;;3.25;3.00;;;;;25.41;42.82;101594.91;5097842;27;51829;-47
2021/08/18 06:24:28;;;;;;;;;3.50;3.00;;;;;25.41;43.20;101592.13;5079341;27;51021;-47
2021/08/18 06:26:55;;;;;;;;;2.00;2.00;;;;;25.41;43.13;101594.91;5107272;27;50942;-44
2021/08/18 06:29:21;;;;;;;;;2.25;2.25;;;;;25.41;42.86;101603.22;5118432;27;51144;-45
2021/08/18 06:31:47;;;;;;;;;2.00;2.00;;;;;25.40;42.82;101596.81;5100127;27;52442;-48
2021/08/18 06:34:12;;;;;;;;;4.00;2.00;;;;;25.40;42.92;101602.38;5118201;27;51297;-47
2021/08/18 06:36:38;;;;;;;;;1.50;1.50;;;;;25.39;43.07;101597.91;5118067;27;50986;-48
2021/08/18 06:39:03;;;;;;;;;1.50;1.50;;;;;25.39;42.74;101602.63;5118063;27;51490;-47
2021/08/18 06:41:28;;;;;;;;;4.75;2.00;;;;;25.39;43.13;101606.22;5117753;27;50980;-49
2021/08/18 06:43:54;;;;;;;;;1.75;1.75;;;;;25.39;43.00;101600.69;5118051;27;51293;-48
2021/08/18 06:46:19;;;;;;;;;2.50;2.00;;;;;25.40;43.02;101612.63;5118201;27;51059;-48
2021/08/18 06:48:44;;;;;;;;;2.00;2.00;;;;;25.39;43.09;101606.22;5117918;27;50899;-46
2021/08/18 06:51:10;;;;;;;;;1.50;1.50;;;;;25.38;43.16;101604.53;5117811;27;51027;-48
2021/08/18 06:53:35;;;;;;;;;1.75;1.75;;;;;25.39;42.89;101605.38;5117821;27;50981;-45
2021/08/18 06:56:00;;;;;;;;;2.00;1.25;;;;;25.39;42.87;101608.16;5117773;27;50899;-48
2021/08/18 06:58:26;;;;;;;;;2.00;2.00;;;;;25.40;42.76;101609.84;5117970;27;51015;-47
2021/08/18 07:00:52;;;;;;;;;1.00;1.00;;;;;25.40;43.15;101607.06;5116585;27;53860;-46
2021/08/18 07:03:17;;;;;;;;;2.25;1.75;;;;;25.41;42.61;101608.75;5117551;27;50949;-49
2021/08/18 07:05:43;;;;;;;;;3.25;2.25;;;;;25.40;43.05;101607.91;5097175;27;51087;-49
2021/08/18 07:08:08;;;;;;;;;2.00;2.00;;;;;25.40;42.71;101610.69;5097474;27;50944;-51
2021/08/18 07:10:34;;;;;;;;;2.00;2.00;;;;;25.40;42.87;101607.06;5097507;27;51106;-45
2021/08/18 07:12:59;;;;;;;;;3.00;3.00;;;;;25.40;42.83;101607.91;5097689;27;50840;-48
2021/08/18 07:15:24;;;;;;;;;1.00;1.00;;;;;25.41;43.14;101606.00;5097171;27;51000;-52
2021/08/18 07:17:50;;;;;;;;;4.00;3.75;;;;;25.41;42.93;101603.22;5097015;27;51036;-46
2021/08/18 07:20:15;;;;;;;;;2.50;2.50;;;;;25.40;42.88;101601.53;5096684;27;52146;-48
2021/08/18 07:22:40;;;;;;;;;5.75;2.50;;;;;25.40;42.95;101601.53;5098648;27;50938;-48
2021/08/18 07:25:06;;;;;;;;;3.75;3.00;;;;;25.40;43.08;101595.97;5100194;27;51086;-52
2021/08/18 07:27:31;;;;;;;;;5.50;3.25;;;;;25.40;42.99;101596.81;5115073;27;50893;-46
2021/08/18 07:29:57;;;;;;;;;2.75;2.75;;;;;25.41;42.99;101603.22;5120604;27;50908;-48
2021/08/18 07:32:24;;;;;;;;;2.00;2.00;;;;;25.40;42.74;101599.59;5120697;27;50984;-46
2021/08/18 07:34:49;;;;;;;;;3.00;2.00;;;;;25.41;43.00;101597.66;5102587;27;51175;-49
2021/08/18 07:37:16;;;;;;;;;1.75;1.75;;;;;25.40;42.98;101594.06;5121178;27;51254;-45
2021/08/18 07:39:42;;;;;;;;;4.25;3.50;;;;;25.39;42.96;101595.13;5102068;27;52945;-50
2021/08/18 07:42:07;;;;;;;;;4.75;2.50;;;;;25.40;42.92;101593.22;5103140;27;50981;-46
2021/08/18 07:44:33;;;;;;;;;3.75;3.75;;;;;25.40;42.91;101596.81;5120626;27;50959;-47
2021/08/18 07:46:58;;;;;;;;;4.25;4.25;;;;;25.40;42.86;101599.59;5121003;27;51070;-46
2021/08/18 07:49:23;;;;;;;;;4.00;4.00;;;;;25.40;42.67;101596.81;5102132;27;52812;-46
2021/08/18 07:51:49;;;;;;;;;4.00;3.00;;;;;25.40;42.77;101595.97;5120795;27;50945;-48
2021/08/18 07:54:14;;;;;;;;;2.50;2.50;;;;;25.40;43.25;101593.22;5120054;27;50891;-48
2021/08/18 07:56:39;;;;;;;;;3.00;3.00;;;;;25.40;43.19;101593.22;5102523;27;50902;-48
2021/08/18 07:59:05;;;;;;;;;3.50;3.50;;;;;25.40;42.97;101594.06;5120316;27;50927;-51
2021/08/18 08:01:30;;;;;;;;;3.75;2.25;;;;;25.40;43.08;101594.06;5120396;27;51038;-47
2021/08/18 08:03:55;;;;;;;;;3.50;3.00;;;;;25.41;42.98;101601.28;5115303;27;50986;-48
2021/08/18 08:06:20;;;;;;;;;3.00;3.00;;;;;25.40;43.16;101596.81;5099638;27;50841;-50
2021/08/18 08:08:46;;;;;;;;;3.50;3.00;;;;;25.40;42.87;101595.97;5099672;27;50839;-48
2021/08/18 08:11:11;;;;;;;;;4.00;3.00;;;;;25.41;43.34;101598.50;5099546;27;51014;-48
2021/08/18 08:13:36;;;;;;;;;2.25;1.50;;;;;25.41;42.93;101600.44;5100842;27;51024;-46
2021/08/18 08:16:02;;;;;;;;;3.50;3.00;;;;;25.41;42.99;101597.66;5099870;27;50986;-49
2021/08/18 08:18:28;;;;;;;;;5.50;4.00;;;;;25.41;43.09;101598.50;5099221;27;51692;-46
2021/08/18 08:20:53;;;;;;;;;2.75;2.75;;;;;25.41;42.90;101598.50;5100026;27;50892;-47
2021/08/18 08:23:18;;;;;;;;;4.00;3.00;;;;;25.41;43.20;101595.75;5099331;27;50995;-48
2021/08/18 08:25:44;;;;;;;;;5.50;3.75;;;;;25.41;43.04;101598.50;5099393;27;51102;-50
2021/08/18 08:28:09;;;;;;;;;4.00;4.00;;;;;25.42;43.16;101602.13;5119186;27;50966;-49
2021/08/18 08:30:34;;;;;;;;;5.00;2.00;;;;;25.41;43.22;101595.75;5120092;27;50992;-50
2021/08/18 08:33:00;;;;;;;;;2.50;2.25;;;;;25.41;43.01;101598.50;5120029;27;50971;-48
2021/08/18 08:35:25;;;;;;;;;3.50;2.25;;;;;25.41;42.97;101603.22;5120082;27;51316;-51
2021/08/18 08:37:51;;;;;;;;;1.75;1.00;;;;;25.41;43.08;101597.66;5119944;27;51036;-49
2021/08/18 08:40:16;;;;;;;;;4.25;4.25;;;;;25.41;43.22;101603.22;5119395;27;50889;-46
2021/08/18 08:42:42;;;;;;;;;3.50;2.00;;;;;25.41;43.23;101609.59;5119600;27;50969;-47
2021/08/18 08:45:09;;;;;;;;;3.50;2.00;;;;;25.42;42.98;101610.44;5119889;27;51203;-48
2021/08/18 08:47:36;;;;;;;;;4.50;3.00;;;;;25.42;43.04;101607.69;5119257;27;52749;-50
2021/08/18 08:50:03;;;;;;;;;4.00;4.00;;;;;25.42;43.01;101602.13;5119419;27;50997;-49
2021/08/18 08:52:28;;;;;;;;;5.00;2.50;;;;;25.41;42.96;101606.84;5119580;27;50978;-49
2021/08/18 08:54:54;;;;;;;;;3.50;3.50;;;;;25.41;42.98;101612.38;5119467;27;50926;-49
2021/08/18 08:57:19;;;;;;;;;3.00;3.00;;;;;25.41;43.12;101614.31;5119428;27;50925;-50
2021/08/18 08:59:45;;;;;;;;;4.00;4.00;;;;;25.42;43.03;101614.06;5119567;27;51027;-49
2021/08/18 09:02:12;;;;;;;;;4.00;4.00;;;;;25.42;43.30;101613.22;5118912;27;50923;-51
2021/08/18 09:04:45;;;;;;;;;2.50;2.50;;;;;25.42;42.68;101616.00;5089610;27;50996;-50
2021/08/18 09:07:14;;;;;;;;;2.25;2.25;;;;;25.40;43.12;101613.47;5098559;27;52003;-47
2021/08/18 09:09:53;;;;;;;;;5.00;5.00;;;;;25.42;42.89;101610.44;5098351;27;51151;-50
2021/08/18 09:12:21;;;;;;;;;4.25;3.50;;;;;25.42;42.83;101610.44;5080817;27;51170;-43
2021/08/18 09:14:46;;;;;;;;;3.25;2.00;;;;;25.43;43.01;101606.59;5098999;27;51235;-46
2021/08/18 09:17:32;;;;;;;;;3.75;2.50;;;;;25.43;43.08;101603.81;5098427;27;50935;-44
2021/08/18 09:20:08;;;;;;;;;3.00;3.00;;;;;25.43;43.03;101603.81;5098501;27;50951;-43
2021/08/18 09:22:37;;;;;;;;;3.00;2.00;;;;;25.42;43.15;101607.69;5080482;27;50971;-42
2021/08/18 09:25:12;;;;;;;;;5.25;3.00;;;;;25.42;42.99;101604.91;5098215;27;51178;-43
2021/08/18 09:27:38;;;;;;;;;3.75;2.00;;;;;25.42;43.14;101607.69;5113516;27;51917;-43
2021/08/18 09:30:16;;;;;;;;;2.25;2.25;;;;;25.42;42.98;101602.97;5118546;27;51101;-42
2021/08/18 09:32:41;;;;;;;;;2.00;2.00;;;;;25.43;42.63;101601.91;5118586;27;51068;-44
2021/08/18 09:35:10;;;;;;;;;3.50;2.00;;;;;25.43;43.01;101601.03;5119377;27;50929;-44
2021/08/18 09:37:38;;;;;;;;;2.50;2.50;;;;;25.43;42.93;101599.16;5118282;27;50957;-42
2021/08/18 09:40:31;;;;;;;;;4.25;3.00;;;;;25.43;42.68;101593.59;5100199;27;51006;-42
2021/08/18 09:43:10;;;;;;;;;5.00;2.00;;;;;25.43;42.91;101598.28;5118795;27;50876;-44
2021/08/18 09:45:39;;;;;;;;;3.00;3.00;;;;;25.43;43.29;101598.28;5118019;27;51130;-45
2021/08/18 09:48:06;;;;;;;;;2.75;2.25;;;;;25.41;43.08;101587.41;5118341;27;51800;-43
2021/08/18 09:50:40;;;;;;;;;3.75;3.75;;;;;25.42;42.92;101591.03;5100127;27;51376;-43
2021/08/18 09:53:32;;;;;;;;;3.00;2.25;;;;;25.44;42.97;101594.44;5118110;27;50959;-43
2021/08/18 09:56:05;;;;;;;;;3.00;3.00;;;;;25.44;42.94;101595.28;5109696;27;51129;-45
2021/08/18 09:58:31;;;;;;;;;5.25;4.75;;;;;25.44;43.26;101586.13;5118343;27;52000;-44
2021/08/18 10:01:08;;;;;;;;;2.00;2.00;;;;;25.44;42.54;101592.50;5118388;27;51146;-45
2021/08/18 10:03:34;;;;;;;;;5.00;3.00;;;;;25.44;42.69;101594.44;5117891;27;51046;-46
2021/08/18 10:06:01;;;;;;;;;3.00;3.00;;;;;25.43;42.78;101601.91;5099770;27;50926;-44
2021/08/18 10:08:27;;;;;;;;;2.00;2.00;;;;;25.45;43.24;101598.91;5097890;27;50912;-43
2021/08/18 10:10:53;;;;;;;;;3.25;2.00;;;;;25.46;42.96;101600.59;5098428;27;50946;-43
2021/08/18 10:13:23;;;;;;;;;2.75;2.25;;;;;25.45;43.01;101598.91;5080558;27;51016;-45
2021/08/18 10:15:50;;;;;;;;;2.25;2.25;;;;;25.45;43.06;101599.75;5098978;27;50960;-44
2021/08/18 10:18:38;;;;;;;;;5.50;3.00;;;;;25.46;42.94;101600.59;5097827;27;51758;-47
2021/08/18 10:21:15;;;;;;;;;1.00;1.00;;;;;25.47;43.04;101596.72;5079497;27;50982;-45
2021/08/18 10:24:00;;;;;;;;;2.25;2.25;;;;;25.46;42.97;101598.66;5096949;27;51059;-42
2021/08/18 10:26:34;;;;;;;;;3.00;3.00;;;;;25.47;42.72;101597.56;5102880;27;51004;-43
2021/08/18 10:29:04;;;;;;;;;3.00;2.00;;;;;25.47;42.93;101597.56;5117975;27;50995;-44
2021/08/18 10:31:46;;;;;;;;;2.75;2.25;;;;;25.48;43.12;101590.09;5118139;27;51053;-44
2021/08/18 10:34:23;;;;;;;;;3.00;2.50;;;;;25.47;42.86;101586.47;5117826;27;51137;-45
2021/08/18 10:36:53;;;;;;;;;3.75;1.75;;;;;25.47;43.13;101580.09;5118492;27;51211;-44
2021/08/18 10:39:18;;;;;;;;;2.00;2.00;;;;;25.47;43.33;101586.47;5117478;27;50926;-45
2021/08/18 10:42:09;;;;;;;;;4.25;4.00;;;;;25.47;43.33;101585.63;5118063;27;51237;-46
2021/08/18 10:44:46;;;;;;;;;6.00;3.00;;;;;25.47;43.05;101580.09;5099436;27;51145;-44
2021/08/18 10:47:15;;;;;;;;;2.25;2.25;;;;;25.47;43.10;101575.38;5099610;27;51200;-45
2021/08/18 10:49:42;;;;;;;;;4.25;3.00;;;;;25.48;42.93;101567.91;5117789;27;52322;-47
2021/08/18 10:52:08;;;;;;;;;2.50;2.50;;;;;25.47;42.82;101569.00;5117878;27;51190;-48
2021/08/18 10:54:33;;;;;;;;;2.25;2.25;;;;;25.48;43.18;101570.69;5117259;27;50985;-47
2021/08/18 10:57:00;;;;;;;;;4.75;2.00;;;;;25.49;42.94;101572.38;5119787;27;51433;-48
2021/08/18 10:59:34;;;;;;;;;2.00;2.00;;;;;25.49;43.02;101566.81;5120817;27;50974;-47
2021/08/18 11:01:59;;;;;;;;;3.00;3.00;;;;;25.49;42.88;101572.38;5120754;27;51282;-49
2021/08/18 11:04:44;;;;;;;;;3.75;2.00;;;;;25.49;42.85;101564.91;5115926;27;50877;-48
2021/08/18 11:07:10;;;;;;;;;3.00;3.00;;;;;25.50;42.91;101557.41;5082075;27;51320;-52
2021/08/18 11:09:48;;;;;;;;;2.00;2.00;;;;;25.50;43.06;101566.56;5099452;27;51228;-50
2021/08/18 11:12:38;;;;;;;;;4.75;3.00;;;;;25.50;42.85;101554.63;5100155;27;50918;-50
2021/08/18 11:15:23;;;;;;;;;4.25;3.00;;;;;25.51;42.91;101556.31;5100460;27;50971;-46
2021/08/18 11:17:50;;;;;;;;;4.00;1.00;;;;;25.51;42.67;101551.63;5099807;27;51141;-50
2021/08/18 11:20:18;;;;;;;;;2.00;2.00;;;;;25.53;42.77;101545.84;5099806;27;50967;-46
2021/08/18 11:22:44;;;;;;;;;2.00;2.00;;;;;25.52;42.75;101544.97;5100191;27;50948;-51
2021/08/18 11:25:13;;;;;;;;;2.50;2.00;;;;;25.52;42.77;101547.75;5099884;27;51070;-50